Current Weather

Needles

Needles, California (KEED)

Report from: Sunday, June 26, 2022 9:56 AM PDT
Current time: Sunday, June 26, 2022 10:41 AM PDT

Nearby weather
Weather history
Weather forecast

Temperature37.2°C (99.0°F)
Heat index36.0°C (96.8°F)
Dew point11.7°C (53.1°F)
Winds Calm
Visibility10 mi. (16.1 km)
Clouds Sky clear
Altimeter29.97 in.Hg (1015 mB)
Relative humidity22 %
Density altitude2,648 ft. (807 m)
Sea-level pressure101.1 kPa (1011 mB, 29.85 in.Hg)
Remarks Fully automated report
Automated weather observing station with precipitation discriminator
Flight conditions Visual Meteorological Conditions
Raw dataKEED 261656Z AUTO 00000KT 10SM CLR 37/12 A2997 RMK AO2 SLP107 T03720117
An error has occurred. This application may no longer respond until reloaded. Reload 🗙